Time;durP1;ratioP1;P1;durP2;ratioP2;P2;SDS_P1;SDS_P2;PMS_P1;PMS_P2;Temp;Humidity;BMP_temperature;BMP_pressure;BME280_temperature;BME280_humidity;BME280_pressure;Samples;Min_cycle;Max_cycle;Signal;HPM_P1;HPM_P2
2021/01/13 00:04:00;;;;;;;5.40;2.00;;;;;;;2.71;79.28;100224.63;8778232;33;20230;-69
2021/01/13 00:09:04;;;;;;;5.37;2.80;;;;;;;2.70;79.68;100220.28;8778444;33;21017;-70
2021/01/13 00:14:06;;;;;;;4.10;1.50;;;;;;;2.48;80.27;100222.84;8778222;33;20187;-70
2021/01/13 00:19:10;;;;;;;1.83;1.60;;;;;;;2.58;80.05;100219.81;8778400;33;20189;-72
2021/01/13 00:24:13;;;;;;;3.83;1.37;;;;;;;2.52;79.90;100225.28;8777731;33;20186;-71
2021/01/13 00:29:17;;;;;;;4.93;2.23;;;;;;;2.52;80.17;100225.28;8777983;33;20169;-71
2021/01/13 00:34:21;;;;;;;13.10;2.57;;;;;;;2.68;79.68;100223.81;8778628;33;20632;-71
2021/01/13 00:39:24;;;;;;;4.43;2.33;;;;;;;2.64;80.09;100230.13;8777661;33;20533;-71
2021/01/13 00:44:26;;;;;;;4.27;2.43;;;;;;;2.76;79.19;100207.69;8776292;33;20209;-71
2021/01/13 00:49:29;;;;;;;6.17;2.40;;;;;;;2.71;79.91;100214.94;8775914;33;20669;-71
2021/01/13 00:54:32;;;;;;;1.77;1.67;;;;;;;2.68;79.77;100221.16;8777526;33;20666;-71
2021/01/13 00:59:34;;;;;;;6.73;2.90;;;;;;;2.55;80.39;100219.94;8777119;33;20232;-71
2021/01/13 01:04:39;;;;;;;3.73;2.17;;;;;;;2.79;80.00;100219.91;8777129;33;20155;-71
2021/01/13 01:09:41;;;;;;;6.07;3.20;;;;;;;3.01;79.29;100214.69;8775464;33;20294;-72
2021/01/13 01:14:45;;;;;;;6.80;2.10;;;;;;;2.79;80.19;100212.88;8776580;33;20659;-72
2021/01/13 01:19:49;;;;;;;5.07;2.47;;;;;;;2.73;80.45;100220.16;8776202;33;20194;-70
2021/01/13 01:24:51;;;;;;;3.73;2.03;;;;;;;2.80;79.62;100232.22;8775800;33;20651;-70
2021/01/13 01:29:54;;;;;;;6.30;3.00;;;;;;;2.83;79.58;100225.03;8776050;33;20291;-71
2021/01/13 01:34:58;;;;;;;4.43;1.80;;;;;;;2.80;79.31;100230.44;8775569;33;20256;-71
2021/01/13 01:40:00;;;;;;;6.70;2.30;;;;;;;2.77;79.72;100233.19;8790019;33;22019;-69
2021/01/13 01:45:05;;;;;;;5.53;3.00;;;;;;;2.78;79.69;100224.34;8775938;33;21415;-70
2021/01/13 01:50:10;;;;;;;2.40;1.43;;;;;;;2.66;80.21;100227.41;8775859;33;20888;-70
2021/01/13 01:55:14;;;;;;;4.43;2.10;;;;;;;2.82;79.99;100230.34;8775878;33;20487;-70
2021/01/13 02:00:30;;;;;;;6.57;2.27;;;;;;;2.73;79.60;100234.19;8775395;33;20658;-72
2021/01/13 02:05:35;;;;;;;2.63;1.67;;;;;;;2.55;80.37;100227.84;8775869;33;21517;-69
2021/01/13 02:10:41;;;;;;;5.57;2.13;;;;;;;2.80;79.34;100227.78;8775843;33;20715;-69
2021/01/13 02:15:44;;;;;;;5.70;2.47;;;;;;;2.52;80.16;100221.78;8817198;33;20140;-69
2021/01/13 02:20:54;;;;;;;3.37;1.90;;;;;;;2.46;80.42;100220.25;8797749;33;20186;-70
2021/01/13 02:26:44;;;;;;;1.40;1.30;;;;;;;2.47;79.88;100216.72;8776823;33;20194;-70
2021/01/13 02:32:07;;;;;;;3.03;1.90;;;;;;;2.53;79.91;100213.84;8775913;33;20554;-72
2021/01/13 02:37:43;;;;;;;5.17;2.37;;;;;;;2.47;80.54;100218.47;8774973;33;20622;-72
2021/01/13 02:43:07;;;;;;;5.53;3.30;;;;;;;2.59;79.38;100228.59;8775030;33;20212;-70
2021/01/13 02:48:13;;;;;;;2.73;1.80;;;;;;;2.42;79.83;100230.03;8776315;33;20657;-69
2021/01/13 02:54:00;;;;;;;5.43;2.10;;;;;;;2.70;79.05;100233.47;8774483;33;20182;-70
2021/01/13 02:59:09;;;;;;;7.17;1.83;;;;;;;2.55;79.36;100235.75;8774138;33;20524;-70
2021/01/13 03:04:13;;;;;;;5.13;2.33;;;;;;;2.68;78.89;100226.44;8773100;33;20193;-71
2021/01/13 03:09:17;;;;;;;10.83;3.00;;;;;;;2.90;78.25;100229.16;8774658;33;20697;-71
2021/01/13 03:14:21;;;;;;;8.27;2.80;;;;;;;2.58;78.75;100237.41;8774676;33;20209;-71
2021/01/13 03:19:43;;;;;;;5.40;2.40;;;;;;;2.64;78.63;100237.19;8771500;33;20249;-71
2021/01/13 03:24:54;;;;;;;6.90;3.20;;;;;;;2.43;79.74;100236.19;8773487;33;20722;-71
2021/01/13 03:29:59;;;;;;;5.67;2.70;;;;;;;2.60;78.71;100228.50;8773442;33;20484;-71
2021/01/13 03:35:10;;;;;;;4.13;2.30;;;;;;;2.86;78.12;100242.53;8773455;33;20186;-71
2021/01/13 03:40:16;;;;;;;6.83;3.13;;;;;;;3.03;77.28;100221.63;8773303;33;21310;-71
2021/01/13 03:45:38;;;;;;;6.93;2.27;;;;;;;2.85;77.89;100243.44;8773605;33;20927;-71
2021/01/13 03:50:44;;;;;;;5.13;2.40;;;;;;;2.59;77.94;100232.06;8776610;33;22082;-71
2021/01/13 03:55:47;;;;;;;4.93;2.17;;;;;;;2.65;78.57;100237.13;8778577;33;20232;-71
2021/01/13 04:01:24;;;;;;;8.93;2.43;;;;;;;2.90;77.78;100237.06;8778291;33;20195;-71
2021/01/13 04:06:28;;;;;;;3.10;2.10;;;;;;;2.70;78.03;100231.69;8786766;33;21688;-71
2021/01/13 04:11:36;;;;;;;6.77;2.97;;;;;;;2.59;78.57;100226.81;8785508;33;20769;-71
2021/01/13 04:16:39;;;;;;;6.43;3.60;;;;;;;2.65;78.34;100216.00;8778354;33;20593;-71
2021/01/13 04:21:43;;;;;;;6.63;2.20;;;;;;;2.71;78.02;100238.66;8777890;33;20343;-71
2021/01/13 04:26:46;;;;;;;11.10;4.10;;;;;;;2.74;78.24;100224.50;8778113;33;20838;-71
2021/01/13 04:31:49;;;;;;;6.17;4.47;;;;;;;2.81;78.24;100216.31;8776172;33;20182;-71
2021/01/13 04:36:57;;;;;;;6.23;4.00;;;;;;;2.81;77.81;100216.31;8777703;33;20187;-72
2021/01/13 04:42:05;;;;;;;7.13;4.67;;;;;;;2.68;78.17;100196.56;8777570;33;20224;-71
2021/01/13 04:47:09;;;;;;;11.77;4.27;;;;;;;2.91;77.49;100216.84;8777561;33;21988;-71
2021/01/13 04:52:19;;;;;;;5.00;4.07;;;;;;;2.84;78.26;100195.09;8776247;33;20560;-71
2021/01/13 04:58:11;;;;;;;6.10;4.07;;;;;;;2.74;78.62;100203.41;8778019;33;20186;-71
2021/01/13 05:03:42;;;;;;;11.20;5.47;;;;;;;2.75;79.35;100197.22;8775774;33;20255;-71
2021/01/13 05:09:04;;;;;;;13.93;3.90;;;;;;;2.78;78.46;100186.56;8777103;33;22117;-71
2021/01/13 05:14:07;;;;;;;9.27;4.97;;;;;;;3.10;77.60;100193.25;8774252;33;21521;-71
2021/01/13 05:19:49;;;;;;;13.97;6.17;;;;;;;3.09;77.65;100184.44;8776817;33;20780;-71
2021/01/13 05:24:53;;;;;;;10.03;5.40;;;;;;;2.92;78.47;100192.16;8758940;33;20895;-71
2021/01/13 05:30:01;;;;;;;11.03;5.10;;;;;;;2.87;79.10;100187.03;8775600;33;20156;-71
2021/01/13 05:35:05;;;;;;;8.73;4.60;;;;;;;2.88;79.13;100188.78;8776894;33;20195;-71
2021/01/13 05:40:11;;;;;;;7.57;3.60;;;;;;;3.05;78.62;100182.84;8775861;33;20132;-71
2021/01/13 05:45:15;;;;;;;9.30;3.33;;;;;;;2.79;79.12;100175.94;8776424;33;21494;-71
2021/01/13 05:50:20;;;;;;;8.53;4.43;;;;;;;2.79;79.07;100161.88;8775050;33;21759;-71
2021/01/13 05:55:26;;;;;;;12.27;5.77;;;;;;;2.96;78.67;100183.19;8775752;33;20606;-71
2021/01/13 06:00:30;;;;;;;5.17;3.33;;;;;;;2.81;78.60;100171.47;8775375;33;20324;-71
2021/01/13 06:05:34;;;;;;;9.10;5.60;;;;;;;2.83;80.15;100177.53;8776158;33;20193;-72
2021/01/13 06:10:39;;;;;;;4.90;4.17;;;;;;;2.76;80.72;100180.47;8775752;33;20182;-70
2021/01/13 06:15:44;;;;;;;6.67;3.83;;;;;;;2.83;81.06;100184.59;8775394;33;20159;-71
2021/01/13 06:20:47;;;;;;;4.70;3.70;;;;;;;2.58;82.16;100180.25;8775028;33;20486;-70
2021/01/13 06:25:55;;;;;;;10.60;5.40;;;;;;;2.72;81.89;100181.53;8773839;33;20923;-70
2021/01/13 06:31:06;;;;;;;13.77;5.40;;;;;;;2.85;81.19;100188.91;8775542;33;20178;-70
2021/01/13 06:36:37;;;;;;;8.87;3.27;;;;;;;2.62;82.38;100187.13;8778649;33;21374;-71
2021/01/13 06:41:49;;;;;;;7.33;4.77;;;;;;;2.41;82.64;100194.06;8775342;33;22338;-70
2021/01/13 06:46:53;;;;;;;10.73;5.80;;;;;;;2.84;81.77;100184.53;8780494;33;20187;-71
2021/01/13 06:51:56;;;;;;;12.17;5.57;;;;;;;2.73;81.88;100186.72;8781408;33;20159;-71
2021/01/13 06:57:01;;;;;;;6.90;4.47;;;;;;;2.92;81.02;100196.59;8777146;33;20178;-71
2021/01/13 07:02:03;;;;;;;7.13;4.13;;;;;;;3.02;81.37;100192.69;8773641;33;21665;-71
2021/01/13 07:07:08;;;;;;;10.93;6.37;;;;;;;2.99;81.12;100196.28;8775265;33;21117;-70
2021/01/13 07:12:14;;;;;;;8.87;5.63;;;;;;;2.90;81.94;100191.34;8774461;33;20322;-70
2021/01/13 07:17:19;;;;;;;4.90;3.53;;;;;;;2.79;81.84;100185.63;8774897;33;20337;-71
2021/01/13 07:22:24;;;;;;;11.33;4.50;;;;;;;2.90;82.06;100181.66;8775473;33;20182;-71
2021/01/13 07:27:29;;;;;;;12.20;5.27;;;;;;;3.15;81.58;100193.03;8779922;33;20673;-71
2021/01/13 07:32:39;;;;;;;8.03;5.23;;;;;;;3.11;81.38;100209.00;8779513;33;20571;-72
2021/01/13 07:37:50;;;;;;;7.53;4.70;;;;;;;2.71;83.20;100201.72;8779260;33;20186;-71
2021/01/13 07:43:04;;;;;;;3.07;2.87;;;;;;;2.57;83.83;100204.88;8745997;33;20180;-70
2021/01/13 07:49:06;;;;;;;9.73;4.53;;;;;;;2.58;84.39;100205.78;8764334;33;20278;-70
2021/01/13 07:54:26;;;;;;;4.90;4.10;;;;;;;2.65;84.77;100205.47;8770162;33;20682;-70
2021/01/13 07:59:41;;;;;;;7.93;2.93;;;;;;;2.61;84.58;100205.66;8767587;33;21464;-70
2021/01/13 08:05:38;;;;;;;4.90;3.83;;;;;;;2.72;85.15;100202.63;8777433;33;20260;-71
2021/01/13 08:10:42;;;;;;;11.10;5.63;;;;;;;2.76;84.65;100199.78;8720518;33;21743;-72
2021/01/13 08:16:38;;;;;;;7.77;4.57;;;;;;;2.89;83.98;100202.84;8718223;33;20180;-71
2021/01/13 08:21:48;;;;;;;6.50;4.73;;;;;;;2.72;84.37;100197.34;8710159;33;20580;-71
2021/01/13 08:26:51;;;;;;;6.97;5.40;;;;;;;2.95;83.86;100191.19;8717103;33;20465;-71
2021/01/13 08:32:05;;;;;;;5.00;2.80;;;;;;;2.87;84.20;100200.25;8718575;33;20506;-69
2021/01/13 08:37:09;;;;;;;8.63;4.90;;;;;;;3.06;84.24;100205.69;8721488;33;21774;-70
2021/01/13 08:42:22;;;;;;;7.77;4.13;;;;;;;3.15;83.37;100193.88;8729794;33;20638;-70
2021/01/13 08:47:26;;;;;;;15.93;6.30;;;;;;;3.16;83.32;100194.78;8777181;33;20190;-70
2021/01/13 08:52:45;;;;;;;12.03;7.07;;;;;;;3.47;82.60;100200.53;8729296;33;20525;-70
2021/01/13 08:57:53;;;;;;;8.80;4.57;;;;;;;3.17;83.35;100196.50;8717890;33;21437;-70
2021/01/13 09:03:13;;;;;;;14.30;7.23;;;;;;;3.33;82.61;100187.88;8777932;33;20573;-70
2021/01/13 09:08:30;;;;;;;8.37;6.00;;;;;;;3.36;82.95;100183.41;8738370;33;20182;-70
2021/01/13 09:13:44;;;;;;;11.10;5.47;;;;;;;3.12;83.39;100204.56;8717291;33;20144;-70
2021/01/13 09:18:55;;;;;;;9.77;5.57;;;;;;;2.94;84.55;100192.97;8704707;33;20964;-71
2021/01/13 09:24:00;;;;;;;10.87;4.97;;;;;;;3.01;84.75;100193.56;8717202;33;20963;-71
2021/01/13 09:29:08;;;;;;;12.83;6.90;;;;;;;3.10;84.33;100172.13;8717452;33;20192;-71
2021/01/13 09:34:31;;;;;;;10.73;5.83;;;;;;;3.51;83.71;100165.16;8716789;33;20230;-71
2021/01/13 09:39:36;;;;;;;7.70;4.03;;;;;;;3.42;83.37;100186.66;8716114;33;20337;-71
2021/01/13 09:44:39;;;;;;;5.67;3.87;;;;;;;3.63;82.48;100187.56;8706209;33;20198;-70
2021/01/13 09:49:43;;;;;;;14.93;6.70;;;;;;;3.91;82.40;100179.34;8715883;33;20318;-71
2021/01/13 09:54:50;;;;;;;11.83;6.20;;;;;;;3.77;82.25;100179.06;8718040;33;20410;-72
2021/01/13 10:00:01;;;;;;;5.53;3.50;;;;;;;3.69;82.86;100181.16;8716729;33;20883;-72
2021/01/13 10:05:07;;;;;;;8.17;4.47;;;;;;;3.83;82.70;100186.72;8714430;33;20312;-73
2021/01/13 10:10:11;;;;;;;6.23;4.83;;;;;;;3.99;81.83;100189.59;8758822;33;20246;-73
2021/01/13 10:15:15;;;;;;;15.73;4.00;;;;;;;4.09;81.82;100174.19;8775668;33;20309;-72
2021/01/13 10:20:24;;;;;;;3.27;2.97;;;;;;;4.17;81.05;100202.03;8775232;33;20682;-70
2021/01/13 10:25:28;;;;;;;7.57;4.33;;;;;;;3.89;82.10;100169.75;8747228;33;20194;-70
2021/01/13 10:30:31;;;;;;;11.73;5.13;;;;;;;4.61;80.73;100167.44;8715240;33;20135;-71
2021/01/13 10:35:40;;;;;;;7.47;4.30;;;;;;;4.70;78.75;100166.16;8775979;33;20532;-71
2021/01/13 10:40:47;;;;;;;4.43;2.77;;;;;;;4.49;80.01;100161.84;8777705;33;20144;-71
2021/01/13 10:45:58;;;;;;;10.10;5.35;;;;;;;4.53;78.90;100129.88;8775383;33;20178;-71
2021/01/13 10:51:08;;;;;;;8.50;4.90;;;;;;;5.34;77.27;100143.69;8751069;33;20180;-71
2021/01/13 10:56:18;;;;;;;10.33;3.77;;;;;;;4.76;76.98;100143.84;8734865;33;20281;-71
2021/01/13 11:01:27;;;;;;;13.07;4.50;;;;;;;4.65;77.94;100121.38;8718937;33;20877;-70
2021/01/13 11:06:30;;;;;;;8.40;3.80;;;;;;;4.46;78.53;100153.09;8737574;33;20201;-70
2021/01/13 11:11:34;;;;;;;9.17;4.40;;;;;;;4.56;79.11;100150.91;8706144;33;20124;-70
2021/01/13 11:16:37;;;;;;;8.97;3.63;;;;;;;5.09;77.70;100121.03;8726509;33;20814;-70
2021/01/13 11:21:44;;;;;;;6.13;3.67;;;;;;;4.88;77.11;100127.38;8759081;33;20191;-71
2021/01/13 11:26:49;;;;;;;4.17;2.30;;;;;;;4.85;77.86;100106.34;8761834;33;20179;-72
2021/01/13 11:31:52;;;;;;;2.83;2.35;;;;;;;5.16;76.11;100091.66;8704405;33;20186;-70
2021/01/13 11:37:39;;;;;;;12.05;4.65;;;;;;;5.93;73.87;100091.25;8699082;33;20554;-72
2021/01/13 11:43:32;;;;;;;6.07;2.17;;;;;;;5.39;74.60;100082.53;8692858;33;20765;-72
2021/01/13 11:49:06;;;;;;;10.10;2.78;;;;;;;4.78;76.99;100081.13;8716502;33;20884;-71
2021/01/13 11:54:10;;;;;;;6.65;3.47;;;;;;;4.40;79.90;100071.38;8735415;33;21879;-72
2021/01/13 11:59:12;;;;;;;6.80;2.83;;;;;;;3.98;81.36;100072.41;8735160;33;20179;-73
2021/01/13 12:04:16;;;;;;;5.30;3.30;;;;;;;4.19;80.62;100054.72;8728046;33;20198;-73
2021/01/13 12:09:19;;;;;;;3.63;2.87;;;;;;;4.05;81.34;100065.06;8700224;33;20275;-73
2021/01/13 12:14:22;;;;;;;13.30;3.13;;;;;;;4.20;80.92;100058.25;8712938;33;20485;-72
2021/01/13 12:19:36;;;;;;;5.10;2.70;;;;;;;4.40;81.15;100037.00;8720148;33;20286;-71
2021/01/13 12:24:42;;;;;;;11.53;3.93;;;;;;;4.54;80.00;100036.34;8719464;33;20564;-71
2021/01/13 12:29:44;;;;;;;8.67;3.10;;;;;;;4.46;79.96;100027.91;8717610;33;20724;-71
2021/01/13 12:34:48;;;;;;;6.40;2.47;;;;;;;4.39;79.80;100047.66;8717109;33;21867;-72
2021/01/13 12:39:57;;;;;;;12.90;3.50;;;;;;;4.46;80.04;100023.47;8717238;33;20507;-72
2021/01/13 12:44:59;;;;;;;5.30;2.37;;;;;;;4.33;80.39;100019.69;8716362;33;20953;-73
2021/01/13 12:50:02;;;;;;;8.30;3.23;;;;;;;4.50;80.53;100023.34;8737336;33;20809;-74
2021/01/13 12:55:06;;;;;;;9.70;3.50;;;;;;;4.44;80.06;100017.44;8727025;33;20683;-73
2021/01/13 13:00:10;;;;;;;2.47;2.10;;;;;;;4.41;79.92;100014.03;8720306;33;20183;-73
2021/01/13 13:05:15;;;;;;;17.97;7.53;;;;;;;4.83;79.15;100005.00;8717855;33;20710;-73
2021/01/13 13:10:18;;;;;;;8.97;3.37;;;;;;;4.63;78.61;100001.50;8717628;33;20946;-73
2021/01/13 13:15:21;;;;;;;9.20;3.63;;;;;;;4.48;79.66;100001.41;8717271;33;20188;-72
2021/01/13 13:20:24;;;;;;;9.57;4.90;;;;;;;4.84;79.71;99977.59;8716309;33;20179;-73
2021/01/13 13:25:27;;;;;;;5.90;3.50;;;;;;;4.30;79.84;99990.75;8717103;33;20146;-73
2021/01/13 13:30:29;;;;;;;5.37;2.30;;;;;;;4.36;80.40;99971.97;8716517;33;20215;-73
2021/01/13 13:35:31;;;;;;;10.47;5.93;;;;;;;4.55;80.60;99964.00;8719817;33;20678;-73
2021/01/13 13:40:40;;;;;;;10.40;5.37;;;;;;;4.49;80.69;99968.72;8692528;33;21427;-73
2021/01/13 13:45:43;;;;;;;4.70;3.33;;;;;;;4.55;80.50;99966.66;8715555;33;20184;-73
2021/01/13 13:50:45;;;;;;;4.60;3.33;;;;;;;4.37;80.88;99960.44;8703760;33;20152;-73
2021/01/13 13:55:49;;;;;;;6.70;5.00;;;;;;;4.50;80.47;99968.66;8706891;33;20191;-73
2021/01/13 14:00:51;;;;;;;8.33;3.00;;;;;;;4.42;80.17;99960.22;8751880;33;20146;-73
2021/01/13 14:05:54;;;;;;;7.37;4.40;;;;;;;4.72;79.78;99925.25;8752640;33;20233;-73
2021/01/13 14:10:58;;;;;;;4.63;4.13;;;;;;;4.42;80.06;99936.44;8716499;33;20280;-74
2021/01/13 14:16:01;;;;;;;4.80;3.73;;;;;;;4.61;80.19;99937.25;8727673;33;20137;-72
2021/01/13 14:21:04;;;;;;;5.27;3.50;;;;;;;4.62;80.11;99946.03;8723233;33;20187;-72
2021/01/13 14:26:07;;;;;;;12.03;5.80;;;;;;;4.67;81.13;99930.78;8715087;33;20616;-71
2021/01/13 14:31:09;;;;;;;5.20;4.10;;;;;;;4.54;80.65;99935.81;8715460;33;20202;-73
2021/01/13 14:36:17;;;;;;;9.30;5.77;;;;;;;4.33;81.08;99942.13;8716941;33;20528;-72
2021/01/13 14:41:28;;;;;;;10.50;6.23;;;;;;;4.67;80.33;99936.06;8716593;33;21893;-72
2021/01/13 14:46:30;;;;;;;13.73;5.80;;;;;;;4.52;80.31;99940.31;8714563;33;20473;-72
2021/01/13 14:51:33;;;;;;;11.70;5.53;;;;;;;4.57;80.15;99933.00;8715548;33;21030;-74
2021/01/13 14:56:36;;;;;;;9.50;3.57;;;;;;;4.39;80.86;99945.38;8714349;33;20873;-72
2021/01/13 15:01:38;;;;;;;15.47;9.27;;;;;;;4.78;79.96;99940.84;8715228;33;20667;-73
2021/01/13 15:06:41;;;;;;;6.57;4.43;;;;;;;4.57;79.64;99940.09;8715517;33;20153;-73
2021/01/13 15:11:44;;;;;;;14.07;7.60;;;;;;;4.61;79.87;99925.81;8714750;33;20187;-72
2021/01/13 15:16:46;;;;;;;13.70;7.47;;;;;;;4.55;80.02;99913.75;8716209;33;20179;-72
2021/01/13 15:21:49;;;;;;;12.27;6.53;;;;;;;4.53;79.72;99909.47;8713795;33;20709;-72
2021/01/13 15:26:53;;;;;;;8.60;5.37;;;;;;;4.53;79.93;99893.56;8715105;33;20270;-71
2021/01/13 15:31:55;;;;;;;8.47;5.33;;;;;;;4.61;79.43;99915.22;8713561;33;20159;-72
2021/01/13 15:36:57;;;;;;;11.23;5.83;;;;;;;4.57;79.78;99903.91;8714603;33;20191;-71
2021/01/13 15:42:05;;;;;;;10.13;4.43;;;;;;;4.61;79.52;99897.56;8717962;33;20458;-71
2021/01/13 15:47:15;;;;;;;4.00;3.70;;;;;;;4.30;80.25;99907.91;8718582;33;20232;-72
2021/01/13 15:52:21;;;;;;;10.07;5.07;;;;;;;4.50;79.22;99899.88;8712340;33;20444;-71
2021/01/13 15:57:28;;;;;;;16.03;5.83;;;;;;;4.68;78.84;99890.16;8737893;33;20171;-71
2021/01/13 16:02:31;;;;;;;11.77;4.90;;;;;;;4.65;78.98;99871.78;8765366;33;20225;-72
2021/01/13 16:07:34;;;;;;;11.23;5.77;;;;;;;4.54;79.23;99860.88;8722583;33;20287;-73
2021/01/13 16:12:39;;;;;;;9.80;6.13;;;;;;;4.55;78.69;99850.25;8718939;33;20188;-72
2021/01/13 16:17:46;;;;;;;13.10;5.60;;;;;;;4.51;78.44;99826.66;8713090;33;20198;-73
2021/01/13 16:22:49;;;;;;;9.93;5.87;;;;;;;4.34;79.29;99814.28;8711862;33;20201;-73
2021/01/13 16:27:52;;;;;;;13.30;7.13;;;;;;;4.33;79.89;99807.25;8718429;33;20148;-72
2021/01/13 16:32:59;;;;;;;7.43;5.33;;;;;;;4.16;81.47;99808.97;8717922;33;20245;-73
2021/01/13 16:38:02;;;;;;;8.53;4.17;;;;;;;4.14;82.25;99826.72;8718005;33;21518;-72
2021/01/13 16:43:08;;;;;;;7.87;4.27;;;;;;;4.10;82.65;99829.56;8718389;33;20187;-71
2021/01/13 16:48:11;;;;;;;10.23;6.00;;;;;;;4.22;82.01;99815.72;8717111;33;20386;-73
2021/01/13 16:53:14;;;;;;;9.47;4.50;;;;;;;4.26;82.27;99822.59;8717612;33;20942;-73
2021/01/13 16:58:21;;;;;;;16.23;7.07;;;;;;;4.44;81.39;99810.22;8716557;33;20455;-71
2021/01/13 17:03:24;;;;;;;6.17;5.37;;;;;;;4.42;80.66;99791.81;8724849;33;20181;-73
2021/01/13 17:08:27;;;;;;;12.93;5.17;;;;;;;4.53;79.72;99791.25;8716356;33;20209;-72
2021/01/13 17:13:31;;;;;;;8.27;5.37;;;;;;;4.54;80.87;99770.94;8764008;33;20186;-73
2021/01/13 17:18:37;;;;;;;11.80;5.63;;;;;;;4.21;82.00;99772.56;8750023;33;20567;-74
2021/01/13 17:23:40;;;;;;;14.10;4.13;;;;;;;4.27;81.93;99765.28;8750319;33;20166;-73
2021/01/13 17:28:44;;;;;;;11.80;5.20;;;;;;;4.20;82.40;99767.38;8731672;33;20226;-73
2021/01/13 17:33:47;;;;;;;7.63;4.30;;;;;;;4.31;81.35;99759.75;8738287;33;20179;-71
2021/01/13 17:38:50;;;;;;;7.17;4.53;;;;;;;4.65;80.76;99744.78;8768797;33;20183;-72
2021/01/13 17:43:53;;;;;;;8.03;3.53;;;;;;;4.40;81.21;99758.44;8719074;33;20162;-72
2021/01/13 17:49:08;;;;;;;7.80;3.13;;;;;;;4.65;80.46;99763.28;8715218;33;20217;-73
2021/01/13 17:54:13;;;;;;;9.73;4.27;;;;;;;4.64;80.79;99773.03;8659988;33;21257;-72
2021/01/13 17:59:17;;;;;;;7.53;3.93;;;;;;;4.70;81.54;99757.78;8628310;33;20319;-72
2021/01/13 18:04:31;;;;;;;7.27;3.50;;;;;;;4.52;81.71;99755.13;8609048;33;20247;-72
2021/01/13 18:09:34;;;;;;;11.77;4.07;;;;;;;4.99;81.78;99809.16;8589890;33;20361;-73
2021/01/13 18:14:37;;;;;;;25.03;7.73;;;;;;;5.05;80.49;99861.81;8557970;33;20489;-75
2021/01/13 18:19:39;;;;;;;7.83;2.47;;;;;;;3.67;80.64;99860.69;8571360;33;20276;-75
2021/01/13 18:24:42;;;;;;;13.10;5.53;;;;;;;3.33;83.25;99860.47;8553962;33;20416;-75
2021/01/13 18:29:45;;;;;;;9.00;4.17;;;;;;;3.45;83.50;99863.47;8555735;33;20415;-75
2021/01/13 18:34:48;;;;;;;12.40;4.50;;;;;;;3.69;83.44;99879.97;8539647;33;20428;-75
2021/01/13 18:39:50;;;;;;;18.37;4.47;;;;;;;3.55;83.96;99885.91;8557735;33;20445;-75
2021/01/13 18:44:53;;;;;;;21.13;9.47;;;;;;;3.93;83.28;99892.03;8558516;33;20901;-74
2021/01/13 18:49:56;;;;;;;8.00;4.07;;;;;;;3.88;84.03;99882.63;8558658;33;20430;-73
2021/01/13 18:54:58;;;;;;;6.93;4.70;;;;;;;3.87;83.42;99873.84;8550227;33;20436;-73
2021/01/13 19:00:02;;;;;;;7.23;3.37;;;;;;;4.05;82.36;99890.59;8562146;33;20298;-74
2021/01/13 19:05:06;;;;;;;6.37;2.33;;;;;;;3.97;82.62;99898.03;8564128;33;20400;-73
2021/01/13 19:10:10;;;;;;;8.87;3.93;;;;;;;4.00;82.52;99900.53;8573915;33;20138;-73
2021/01/13 19:15:14;;;;;;;10.67;5.83;;;;;;;3.96;82.36;99902.47;8568025;33;21825;-73
2021/01/13 19:20:16;;;;;;;10.40;5.50;;;;;;;4.12;81.70;99901.75;8547184;33;21046;-73
2021/01/13 19:25:19;;;;;;;12.03;5.23;;;;;;;4.38;81.44;99903.97;8548988;33;20251;-72
2021/01/13 19:30:23;;;;;;;7.47;3.03;;;;;;;4.54;81.43;99913.81;8556285;33;20410;-73
2021/01/13 19:35:26;;;;;;;9.60;3.50;;;;;;;4.03;81.99;99913.59;8577769;33;21288;-73
2021/01/13 19:40:29;;;;;;;13.83;4.63;;;;;;;4.45;80.81;99917.75;8593935;33;20436;-72
2021/01/13 19:45:33;;;;;;;9.87;4.50;;;;;;;4.08;81.60;99914.22;8619911;33;20932;-72
2021/01/13 19:50:36;;;;;;;11.97;3.93;;;;;;;4.23;80.73;99925.88;8623038;33;21713;-72
2021/01/13 19:55:39;;;;;;;6.07;3.37;;;;;;;4.41;79.40;99940.84;8617493;33;20179;-73
2021/01/13 20:00:42;;;;;;;8.80;3.00;;;;;;;4.50;79.33;99939.56;8607370;33;20504;-72
2021/01/13 20:05:47;;;;;;;7.23;3.17;;;;;;;4.56;79.20;99965.72;8608485;33;20155;-72
2021/01/13 20:10:49;;;;;;;5.27;2.93;;;;;;;4.23;78.42;99981.41;8606171;33;20212;-71
2021/01/13 20:15:53;;;;;;;10.10;5.47;;;;;;;4.20;78.31;99987.69;8590344;33;20424;-72
2021/01/13 20:20:55;;;;;;;12.63;3.77;;;;;;;4.22;79.12;99990.25;8548139;33;21172;-73
2021/01/13 20:25:57;;;;;;;11.53;3.97;;;;;;;4.14;79.02;99998.56;8549851;33;22067;-73
2021/01/13 20:31:01;;;;;;;14.13;5.00;;;;;;;3.91;77.97;100009.31;8544612;33;21757;-74
2021/01/13 20:36:03;;;;;;;6.30;2.40;;;;;;;3.93;78.19;100020.69;8542310;33;20416;-74
2021/01/13 20:41:07;;;;;;;11.47;4.57;;;;;;;3.80;77.88;100023.03;8575439;33;20448;-73
2021/01/13 20:46:10;;;;;;;11.10;4.20;;;;;;;3.47;77.56;100030.66;8569038;33;20864;-73
2021/01/13 20:51:13;;;;;;;10.63;3.13;;;;;;;3.74;77.53;100042.66;8552900;33;20541;-72
2021/01/13 20:56:15;;;;;;;9.07;2.93;;;;;;;3.63;76.66;100038.78;8549647;33;20512;-72
2021/01/13 21:01:18;;;;;;;7.03;2.20;;;;;;;3.70;76.84;100049.00;8550111;33;20185;-73
2021/01/13 21:06:21;;;;;;;4.90;2.10;;;;;;;3.59;76.00;100053.88;8550326;33;20423;-73
2021/01/13 21:11:23;;;;;;;8.40;2.47;;;;;;;3.47;76.06;100059.69;8549301;33;21012;-72
2021/01/13 21:16:26;;;;;;;3.63;1.97;;;;;;;3.37;76.58;100061.00;8544985;33;20652;-73
2021/01/13 21:21:29;;;;;;;9.90;4.40;;;;;;;3.14;76.49;100064.63;8543327;33;20492;-73
2021/01/13 21:26:31;;;;;;;20.00;8.67;;;;;;;3.04;75.55;100074.69;8544581;33;21480;-73
2021/01/13 21:31:34;;;;;;;5.33;2.67;;;;;;;2.77;76.23;100072.25;8484662;33;20183;-73
2021/01/13 21:36:38;;;;;;;49.73;16.20;;;;;;;3.02;76.65;100082.69;8502355;33;20446;-73
2021/01/13 21:41:44;;;;;;;7.70;3.60;;;;;;;2.76;76.23;100081.06;8565662;33;20829;-73
2021/01/13 21:46:50;;;;;;;7.10;4.13;;;;;;;2.87;75.96;100086.78;8599631;33;20904;-73
2021/01/13 21:51:54;;;;;;;4.13;2.00;;;;;;;2.84;76.31;100092.19;8542848;33;21534;-73
2021/01/13 21:56:56;;;;;;;4.03;1.80;;;;;;;2.64;76.19;100098.25;8526990;33;20286;-73
2021/01/13 22:02:00;;;;;;;5.07;1.43;;;;;;;2.47;76.09;100092.78;8486524;33;20448;-73
2021/01/13 22:07:02;;;;;;;6.00;1.77;;;;;;;2.52;76.45;100103.13;8487324;33;21471;-73
2021/01/13 22:12:06;;;;;;;8.23;1.93;;;;;;;2.58;76.44;100114.31;8486650;33;21028;-72
2021/01/13 22:17:10;;;;;;;5.00;2.00;;;;;;;2.43;75.92;100104.34;8484529;33;20457;-72
2021/01/13 22:22:15;;;;;;;7.50;1.67;;;;;;;2.62;75.50;100115.91;8596554;33;21122;-73
2021/01/13 22:27:18;;;;;;;6.93;1.80;;;;;;;2.40;76.02;100122.91;8596262;33;20403;-72
2021/01/13 22:32:22;;;;;;;5.27;1.70;;;;;;;2.56;75.94;100134.59;8597874;33;20228;-72
2021/01/13 22:37:24;;;;;;;6.23;2.17;;;;;;;2.33;75.77;100148.66;8595100;33;20474;-72
2021/01/13 22:42:26;;;;;;;1.83;1.47;;;;;;;2.49;75.62;100156.84;8591326;33;20255;-71
2021/01/13 22:47:30;;;;;;;6.60;1.93;;;;;;;2.53;75.11;100163.72;8588826;33;20549;-73
2021/01/13 22:52:32;;;;;;;9.50;2.13;;;;;;;2.34;75.92;100165.34;8587060;33;20449;-73
2021/01/13 22:57:34;;;;;;;5.80;1.47;;;;;;;2.35;74.95;100177.59;8588214;33;20179;-73
2021/01/13 23:02:40;;;;;;;7.93;2.23;;;;;;;2.56;73.77;100178.59;8587118;33;20293;-73
2021/01/13 23:07:42;;;;;;;3.23;1.40;;;;;;;2.59;74.08;100197.78;8588254;33;20155;-72
2021/01/13 23:12:45;;;;;;;6.53;2.10;;;;;;;2.63;74.13;100204.69;8585730;33;20458;-72
2021/01/13 23:17:48;;;;;;;1.83;1.27;;;;;;;2.58;72.94;100219.81;8587685;33;20656;-71
2021/01/13 23:22:50;;;;;;;3.97;2.07;;;;;;;2.34;72.47;100215.41;8587611;33;20603;-72
2021/01/13 23:27:53;;;;;;;4.83;1.63;;;;;;;2.82;72.49;100209.25;8585997;33;20422;-72
2021/01/13 23:32:58;;;;;;;5.30;1.40;;;;;;;2.80;72.76;100216.38;8580014;33;20163;-72
2021/01/13 23:38:02;;;;;;;4.40;1.60;;;;;;;2.67;72.60;100227.38;8569466;33;21853;-72
2021/01/13 23:43:05;;;;;;;8.63;2.07;;;;;;;2.71;73.58;100233.38;8576077;33;20333;-72
2021/01/13 23:48:10;;;;;;;6.27;1.80;;;;;;;2.79;73.80;100236.59;8587091;33;20419;-72
2021/01/13 23:53:12;;;;;;;4.43;1.43;;;;;;;2.75;73.01;100242.06;8584909;33;20545;-72
2021/01/13 23:58:15;;;;;;;4.60;1.40;;;;;;;3.00;73.31;100245.50;8583588;33;20140;-72
